Time;durP1;ratioP1;P1;durP2;ratioP2;P2;SDS_P1;SDS_P2;PMS_P1;PMS_P2;Temp;Humidity;BMP_temperature;BMP_pressure;BME280_temperature;BME280_humidity;BME280_pressure;Samples;Min_cycle;Max_cycle;Signal;HPM_P1;HPM_P2
2021/06/05 00:02:51;;;;;;;30.70;16.62;;;;;;;15.67;65.17;99545.20;4159568;83;21065;-78
2021/06/05 00:08:52;;;;;;;35.00;17.82;;;;;;;15.59;65.22;99549.14;4150413;84;21014;-79
2021/06/05 00:14:55;;;;;;;26.60;17.20;;;;;;;15.44;65.80;99551.72;4144694;84;22056;-78
2021/06/05 00:20:58;;;;;;;26.50;16.52;;;;;;;15.36;66.65;99550.87;4146291;84;21042;-78
2021/06/05 00:26:59;;;;;;;31.12;18.37;;;;;;;15.15;67.46;99550.86;4147823;83;21596;-78
2021/06/05 00:33:01;;;;;;;26.75;16.60;;;;;;;15.19;67.50;99557.77;4176254;83;21078;-78
2021/06/05 00:39:05;;;;;;;31.82;17.85;;;;;;;15.18;67.92;99548.70;4159741;83;21007;-78
2021/06/05 00:45:11;;;;;;;28.98;17.80;;;;;;;15.34;68.17;99546.94;4163019;83;21051;-79
2021/06/05 00:51:17;;;;;;;27.55;17.30;;;;;;;15.52;68.14;99540.85;4161815;84;21633;-78
2021/06/05 00:57:20;;;;;;;31.30;16.35;;;;;;;15.53;68.20;99540.45;4164208;84;21142;-79
2021/06/05 01:03:24;;;;;;;32.95;17.15;;;;;;;15.45;68.77;99525.70;4149420;84;21070;-78
2021/06/05 01:09:58;;;;;;;24.45;13.22;;;;;;;15.34;69.00;99536.70;4149245;83;21066;-80
2021/06/05 01:16:00;;;;;;;19.62;11.78;;;;;;;15.40;68.60;99522.74;4158813;83;21066;-79
2021/06/05 01:22:16;;;;;;;18.15;10.55;;;;;;;15.26;69.32;99497.09;4161596;84;21034;-79
2021/06/05 01:28:24;;;;;;;21.97;11.73;;;;;;;15.14;69.20;99490.59;4153295;84;21077;-77
2021/06/05 01:34:31;;;;;;;14.40;9.88;;;;;;;15.03;69.58;99492.55;4151101;84;21884;-79
2021/06/05 01:40:34;;;;;;;17.07;11.22;;;;;;;14.90;69.77;99483.87;4133848;83;21613;-79
2021/06/05 01:46:43;;;;;;;19.75;11.53;;;;;;;14.88;70.43;99475.77;4172702;83;21078;-78
2021/06/05 01:52:46;;;;;;;16.12;11.35;;;;;;;15.00;70.74;99488.59;4151955;84;22177;-79
2021/06/05 01:58:50;;;;;;;14.28;10.03;;;;;;;14.92;70.71;99487.03;4163649;83;21038;-79
2021/06/05 02:04:56;;;;;;;16.75;10.53;;;;;;;14.88;70.98;99487.59;4164390;84;21069;-79
2021/06/05 02:11:09;;;;;;;22.17;12.70;;;;;;;15.05;71.26;99488.81;4155005;83;21116;-79
2021/06/05 02:17:13;;;;;;;19.02;12.75;;;;;;;15.14;71.40;99480.94;4154490;83;21011;-78
2021/06/05 02:23:27;;;;;;;18.65;10.93;;;;;;;14.80;71.41;99484.63;4163048;84;21101;-79
2021/06/05 02:29:34;;;;;;;19.40;13.58;;;;;;;14.71;72.31;99484.80;4167311;83;21078;-79
2021/06/05 02:35:41;;;;;;;22.90;13.38;;;;;;;14.70;72.59;99480.48;4156671;83;21074;-78
2021/06/05 02:41:52;;;;;;;22.50;13.62;;;;;;;14.72;72.64;99477.52;4141173;84;21057;-78
2021/06/05 02:48:00;;;;;;;19.32;12.68;;;;;;;14.62;72.66;99488.52;4165225;84;21539;-79
2021/06/05 02:54:05;;;;;;;22.00;12.20;;;;;;;14.54;73.02;99476.70;4144847;84;21018;-78
2021/06/05 03:00:16;;;;;;;15.83;11.80;;;;;;;14.65;72.95;99485.78;4141655;84;21110;-78
2021/06/05 03:06:18;;;;;;;19.00;12.33;;;;;;;14.66;73.38;99474.19;4153722;84;21053;-78
2021/06/05 03:12:20;;;;;;;18.67;11.90;;;;;;;14.67;73.59;99479.30;4161467;83;21038;-78
2021/06/05 03:18:24;;;;;;;21.00;11.28;;;;;;;14.68;73.43;99485.00;4154257;84;21082;-79
2021/06/05 03:24:26;;;;;;;16.48;11.68;;;;;;;14.61;74.02;99488.33;4117985;83;21050;-79
2021/06/05 03:30:29;;;;;;;16.25;10.78;;;;;;;14.67;73.92;99486.19;4134988;84;21049;-79
2021/06/05 03:36:31;;;;;;;19.82;12.50;;;;;;;14.70;74.08;99497.81;4083614;83;26434;-79
2021/06/05 03:42:34;;;;;;;17.37;11.08;;;;;;;14.86;73.95;99516.13;4055857;86;21123;-79
2021/06/05 03:48:39;;;;;;;16.62;10.95;;;;;;;14.80;73.90;99528.72;4054551;86;21060;-79
2021/06/05 03:54:42;;;;;;;21.27;11.43;;;;;;;14.88;73.99;99537.21;4129907;85;22040;-79
2021/06/05 04:00:46;;;;;;;16.48;10.40;;;;;;;14.95;74.05;99544.72;4119093;84;21597;-79
2021/06/05 04:06:51;;;;;;;18.65;11.55;;;;;;;14.92;74.26;99550.44;4094579;86;21105;-79
2021/06/05 04:12:54;;;;;;;17.30;10.80;;;;;;;15.00;74.26;99552.00;4130520;85;21036;-79
2021/06/05 04:18:56;;;;;;;17.48;11.20;;;;;;;14.95;74.47;99557.92;4042025;86;21077;-79
2021/06/05 04:25:02;;;;;;;18.35;11.57;;;;;;;15.10;74.46;99569.17;4089463;86;21033;-79
2021/06/05 04:31:04;;;;;;;19.15;11.40;;;;;;;15.27;74.17;99578.05;4035565;86;21117;-79
2021/06/05 04:37:09;;;;;;;19.35;10.98;;;;;;;15.32;73.98;99591.47;4086482;85;21159;-79
2021/06/05 04:43:18;;;;;;;17.98;10.98;;;;;;;15.36;74.24;99597.77;4133626;84;21060;-79
2021/06/05 04:49:19;;;;;;;21.82;12.78;;;;;;;15.45;74.33;99582.25;4039764;85;21081;-79
2021/06/05 04:55:21;;;;;;;21.45;12.18;;;;;;;15.31;74.57;99576.11;4089670;85;21062;-79
2021/06/05 05:01:22;;;;;;;24.98;14.30;;;;;;;15.32;74.95;99562.51;4042089;86;21105;-79
2021/06/05 05:07:28;;;;;;;18.48;10.20;;;;;;;15.28;75.20;99556.79;4036975;87;21056;-79
2021/06/05 05:13:33;;;;;;;20.15;11.63;;;;;;;15.35;75.27;99556.78;4043063;86;21084;-80
2021/06/05 05:19:34;;;;;;;25.68;15.35;;;;;;;15.47;75.14;99571.01;4040409;86;21067;-80
2021/06/05 05:25:38;;;;;;;28.92;14.93;;;;;;;15.53;75.11;99595.64;4042581;86;21092;-78
2021/06/05 05:31:39;;;;;;;25.55;13.83;;;;;;;15.52;75.30;99610.63;4033605;87;21586;-79
2021/06/05 05:37:43;;;;;;;19.32;12.80;;;;;;;15.25;76.23;99601.70;4025102;86;21080;-78
2021/06/05 05:43:45;;;;;;;21.33;14.38;;;;;;;15.33;76.24;99595.80;4037346;86;21029;-78
2021/06/05 05:49:49;;;;;;;20.70;12.70;;;;;;;15.13;76.74;99590.44;4034124;87;21089;-78
2021/06/05 05:55:50;;;;;;;16.27;11.20;;;;;;;15.01;77.72;99570.14;4028083;87;21046;-80
2021/06/05 06:01:55;;;;;;;14.78;9.08;;;;;;;14.85;78.34;99557.87;4032175;87;21074;-80
2021/06/05 06:07:56;;;;;;;16.57;10.00;;;;;;;14.95;78.43;99555.16;4028277;87;21075;-79
2021/06/05 06:13:57;;;;;;;14.40;9.68;;;;;;;14.95;80.26;99543.34;4041621;87;21041;-79
2021/06/05 06:19:59;;;;;;;10.70;7.00;;;;;;;14.94;79.46;99538.41;4030768;86;21057;-78
2021/06/05 06:26:03;;;;;;;11.73;7.35;;;;;;;14.92;80.01;99537.23;4130148;85;21040;-79
2021/06/05 06:32:05;;;;;;;11.00;7.08;;;;;;;14.87;80.34;99559.08;4143104;83;20954;-80
2021/06/05 06:38:12;;;;;;;11.88;8.38;;;;;;;14.99;80.39;99579.38;4133374;85;20989;-79
2021/06/05 06:44:13;;;;;;;12.63;8.80;;;;;;;14.97;79.82;99555.54;4160092;84;21451;-79
2021/06/05 06:50:19;;;;;;;11.95;8.10;;;;;;;15.01;79.87;99533.50;4143233;83;21159;-78
2021/06/05 06:56:20;;;;;;;15.78;8.43;;;;;;;15.05;80.42;99530.94;4134284;85;21156;-80
2021/06/05 07:02:22;;;;;;;11.97;8.23;;;;;;;15.01;81.90;99519.71;4134145;85;22271;-79
2021/06/05 07:08:34;;;;;;;16.12;8.88;;;;;;;14.98;81.77;99495.11;4131615;85;21025;-78
2021/06/05 07:14:36;;;;;;;12.45;10.32;;;;;;;15.09;81.70;99512.45;4124127;85;21094;-78
2021/06/05 07:20:40;;;;;;;12.85;9.68;;;;;;;15.33;81.50;99508.14;4137914;84;21046;-80
2021/06/05 07:26:42;;;;;;;11.97;8.15;;;;;;;15.52;80.73;99514.64;4139439;84;21073;-79
2021/06/05 07:32:43;;;;;;;10.23;6.75;;;;;;;15.66;80.49;99529.23;4121459;85;21027;-80
2021/06/05 07:38:47;;;;;;;8.75;7.12;;;;;;;15.75;80.15;99522.52;4129759;84;21074;-80
2021/06/05 07:44:50;;;;;;;9.78;7.10;;;;;;;15.87;80.52;99515.98;4130503;85;21057;-79
2021/06/05 07:50:52;;;;;;;10.03;7.90;;;;;;;16.00;80.44;99521.87;4117692;85;21140;-79
2021/06/05 07:56:54;;;;;;;11.22;8.15;;;;;;;16.02;80.46;99507.86;4118119;84;21607;-80
2021/06/05 08:02:55;;;;;;;9.80;6.92;;;;;;;16.07;80.41;99510.22;4115257;84;21058;-80
2021/06/05 08:08:56;;;;;;;9.23;6.70;;;;;;;16.08;80.52;99502.73;4126675;84;21042;-79
2021/06/05 08:14:58;;;;;;;11.38;8.28;;;;;;;16.22;80.51;99497.16;4130344;85;21090;-79
2021/06/05 08:21:07;;;;;;;9.48;6.78;;;;;;;16.30;80.80;99490.42;4125249;84;21056;-79
2021/06/05 08:27:08;;;;;;;;;;;;;;;16.42;80.31;99464.52;4127914;84;21109;-80
2021/06/05 08:33:12;;;;;;;10.15;5.62;;;;;;;16.68;80.26;99450.18;4121632;84;20154;-80
2021/06/05 08:39:14;;;;;;;7.47;6.37;;;;;;;17.06;79.64;99455.25;4118606;85;21118;-79
2021/06/05 08:45:28;;;;;;;12.63;5.45;;;;;;;17.50;79.57;99453.13;4126898;85;21086;-78
2021/06/05 08:52:26;;;;;;;7.70;4.55;;;;;;;17.78;78.15;99448.69;4130548;85;21023;-78
2021/06/05 08:58:40;;;;;;;7.17;4.92;;;;;;;17.83;77.87;99439.34;4071088;85;21074;-78
2021/06/05 09:04:42;;;;;;;8.93;5.45;;;;;;;18.34;77.37;99435.54;4140900;83;21045;-79
2021/06/05 09:10:46;;;;;;;5.80;4.62;;;;;;;18.65;75.64;99433.75;4157610;83;21044;-78
2021/06/05 09:16:51;;;;;;;7.07;4.97;;;;;;;18.97;74.33;99413.06;4149532;83;21154;-78
2021/06/05 09:22:53;;;;;;;6.72;4.78;;;;;;;19.19;73.82;99414.28;4167373;83;21093;-77
2021/06/05 09:29:09;;;;;;;8.85;4.15;;;;;;;19.68;73.90;99413.44;4155790;84;21486;-79
2021/06/05 09:42:28;;;;;;;5.47;4.08;;;;;;;19.85;72.02;99403.98;4206182;83;21888;-79
2021/06/05 09:48:36;;;;;;;5.92;3.60;;;;;;;19.71;71.42;99389.77;4170658;83;21038;-79
2021/06/05 09:54:44;;;;;;;5.03;3.95;;;;;;;19.80;71.49;99398.32;4154433;84;21085;-79
2021/06/05 10:00:45;;;;;;;8.03;3.75;;;;;;;19.82;70.93;99395.11;4154641;84;21690;-79
2021/06/05 10:06:54;;;;;;;4.15;3.10;;;;;;;19.90;71.20;99383.45;4166314;84;21102;-80
2021/06/05 10:12:59;;;;;;;6.50;3.10;;;;;;;19.87;70.68;99397.41;4162487;84;21101;-79
2021/06/05 10:19:07;;;;;;;4.25;3.00;;;;;;;19.90;70.26;99396.55;4165792;83;21468;-79
2021/06/05 10:25:32;;;;;;;4.17;3.42;;;;;;;19.96;70.00;99396.22;4156405;84;21313;-80
2021/06/05 10:31:34;;;;;;;3.50;2.70;;;;;;;20.59;69.38;99382.97;4170777;83;21044;-79
2021/06/05 10:37:39;;;;;;;4.47;3.05;;;;;;;20.82;68.78;99389.77;4158971;84;21082;-78
2021/06/05 10:43:40;;;;;;;6.60;3.12;;;;;;;21.14;69.06;99366.91;4157040;83;21541;-79
2021/06/05 10:50:06;;;;;;;5.50;3.08;;;;;;;22.07;68.78;99362.59;4155237;83;21091;-79
2021/06/05 10:56:15;;;;;;;6.40;3.55;;;;;;;22.68;66.56;99349.77;4150905;84;21120;-78
2021/06/05 11:02:48;;;;;;;3.35;2.72;;;;;;;23.36;65.52;99347.71;4158511;83;21023;-79
2021/06/05 11:08:57;;;;;;;4.58;2.85;;;;;;;24.42;64.76;99345.36;4121626;84;21128;-79
2021/06/05 11:14:58;;;;;;;4.10;2.85;;;;;;;25.04;63.83;99337.06;4085905;85;21109;-79
2021/06/05 11:21:21;;;;;;;3.20;2.90;;;;;;;25.62;61.78;99325.11;4122534;85;21104;-80
2021/06/05 11:27:44;;;;;;;3.75;3.10;;;;;;;26.18;60.98;99312.72;4120675;84;21136;-80
2021/06/05 11:33:45;;;;;;;3.08;2.05;;;;;;;26.75;60.06;99308.63;4120312;85;21100;-80
2021/06/05 11:39:54;;;;;;;2.95;2.40;;;;;;;27.22;58.14;99299.56;4117949;85;21123;-80
2021/06/05 11:46:09;;;;;;;3.00;2.60;;;;;;;27.24;57.06;99297.67;4120594;85;21071;-80
2021/06/05 11:52:34;;;;;;;3.77;1.90;;;;;;;27.52;55.12;99294.81;4122035;85;21084;-80
2021/06/05 11:58:38;;;;;;;2.75;1.92;;;;;;;27.57;54.53;99287.91;4127613;83;21036;-79
2021/06/05 12:04:45;;;;;;;2.27;1.98;;;;;;;27.26;53.81;99282.55;4108933;84;21037;-80
2021/06/05 12:10:47;;;;;;;2.83;1.85;;;;;;;26.56;52.71;99276.26;4108189;84;21091;-80
2021/06/05 12:16:56;;;;;;;5.20;2.45;;;;;;;25.70;52.07;99273.08;4133768;85;21550;-80
2021/06/05 12:23:02;;;;;;;4.35;2.08;;;;;;;25.13;52.12;99271.23;4121101;85;21054;-80
2021/06/05 12:29:19;;;;;;;3.33;2.08;;;;;;;24.95;52.09;99267.64;4110931;84;21443;-79
2021/06/05 12:35:34;;;;;;;3.62;2.50;;;;;;;24.58;52.32;99254.16;4125727;85;21113;-79
2021/06/05 12:41:37;;;;;;;3.97;2.33;;;;;;;24.08;52.09;99223.23;4115737;85;21110;-80
2021/06/05 12:47:47;;;;;;;4.20;2.52;;;;;;;23.59;53.13;99227.91;4150023;85;22461;-79
2021/06/05 12:54:02;;;;;;;3.35;2.72;;;;;;;23.68;53.49;99216.02;4130045;84;21026;-78
2021/06/05 13:00:20;;;;;;;3.00;2.25;;;;;;;23.80;53.05;99210.95;4122475;85;21565;-79
2021/06/05 13:06:26;;;;;;;3.27;2.98;;;;;;;23.84;52.81;99210.18;4071292;84;21071;-79
2021/06/05 13:12:31;;;;;;;5.00;3.00;;;;;;;23.82;53.44;99195.91;4063740;85;21183;-79
2021/06/05 13:18:37;;;;;;;3.50;3.20;;;;;;;23.70;53.30;99196.75;4021840;87;21065;-78
2021/06/05 13:25:02;;;;;;;3.87;3.00;;;;;;;23.85;53.31;99189.39;4066902;86;21074;-79
2021/06/05 13:31:03;;;;;;;4.55;3.00;;;;;;;23.84;53.37;99189.22;4093340;85;21080;-79
2021/06/05 13:37:25;;;;;;;5.47;3.60;;;;;;;23.73;52.83;99174.27;4126140;84;21593;-79
2021/06/05 13:43:28;;;;;;;3.85;3.17;;;;;;;23.56;51.63;99169.36;4122891;85;21497;-79
2021/06/05 13:49:29;;;;;;;4.37;3.20;;;;;;;23.44;52.39;99163.25;4126338;84;21553;-79
2021/06/05 13:55:39;;;;;;;5.70;3.75;;;;;;;23.46;52.33;99164.34;4123398;84;21106;-78
2021/06/05 14:01:41;;;;;;;4.90;3.20;;;;;;;23.66;53.09;99163.98;4133386;85;21049;-80
2021/06/05 14:07:42;;;;;;;4.15;3.12;;;;;;;24.08;52.59;99174.91;4145151;84;21898;-80
2021/06/05 14:13:50;;;;;;;4.47;3.47;;;;;;;24.39;52.39;99173.59;4170924;84;21053;-80
2021/06/05 14:19:54;;;;;;;3.42;2.80;;;;;;;24.54;51.80;99159.15;4135348;83;21585;-79
2021/06/05 14:25:56;;;;;;;4.47;3.95;;;;;;;24.76;51.57;99161.83;4156401;83;21120;-80
2021/06/05 14:31:59;;;;;;;3.35;2.33;;;;;;;24.91;50.28;99161.39;4162974;84;21038;-80
2021/06/05 15:13:05;;;;;;;2.67;1.70;;;;;;;19.49;52.03;99230.34;4128270;80;21707;-79
2021/06/05 15:19:07;;;;;;;3.33;2.55;;;;;;;19.14;52.55;99231.65;4131008;85;21072;-80
2021/06/05 15:25:12;;;;;;;4.45;2.25;;;;;;;19.04;52.99;99234.80;4124276;84;21410;-79
2021/06/05 15:31:16;;;;;;;4.30;3.15;;;;;;;19.08;53.67;99231.94;4122005;84;21048;-78
2021/06/05 15:37:18;;;;;;;5.47;2.67;;;;;;;19.38;54.88;99228.40;4064441;85;21658;-79
2021/06/05 15:43:23;;;;;;;7.10;2.67;;;;;;;19.68;54.19;99248.19;4018195;87;21014;-78
2021/06/05 15:49:25;;;;;;;3.30;2.80;;;;;;;19.61;54.63;99249.13;4107085;85;21049;-80
2021/06/05 15:55:28;;;;;;;6.37;3.52;;;;;;;19.56;54.96;99236.36;4116299;84;21074;-81
2021/06/05 16:01:45;;;;;;;6.83;4.47;;;;;;;19.48;57.19;99228.00;4133392;85;21519;-82
2021/06/05 16:07:47;;;;;;;;;;;;;;;19.37;58.44;99213.56;4112085;85;20993;-81
2021/06/05 16:13:49;;;;;;;7.08;4.22;;;;;;;19.34;59.82;99204.70;4189878;84;20201;-80
2021/06/05 16:19:50;;;;;;;6.37;5.00;;;;;;;19.38;60.79;99189.53;4205284;83;21612;-80
2021/06/05 16:25:53;;;;;;;5.30;4.45;;;;;;;19.35;61.67;99184.84;4213651;83;21072;-81
2021/06/05 16:31:56;;;;;;;9.85;6.78;;;;;;;19.33;60.84;99187.85;4221613;84;21064;-81
2021/06/05 16:37:59;;;;;;;8.83;7.25;;;;;;;19.40;61.63;99188.51;4209651;82;21080;-81
2021/06/05 16:44:01;;;;;;;9.18;4.83;;;;;;;19.30;61.87;99195.05;4221588;82;21028;-80
2021/06/05 16:50:07;;;;;;;9.85;5.30;;;;;;;19.41;62.24;99196.21;4188957;84;21045;-80
2021/06/05 16:56:12;;;;;;;10.53;5.47;;;;;;;19.43;62.07;99201.53;4204629;84;21060;-80
2021/06/05 17:02:17;;;;;;;5.60;4.25;;;;;;;19.46;62.32;99195.72;4197381;84;21064;-81
2021/06/05 17:08:21;;;;;;;6.65;5.17;;;;;;;19.38;62.66;99185.97;4196983;84;21600;-80
2021/06/05 17:14:23;;;;;;;9.88;6.10;;;;;;;19.31;62.40;99180.58;4165541;83;21078;-80
2021/06/05 17:20:27;;;;;;;6.72;5.03;;;;;;;19.29;62.45;99183.00;4170081;84;21474;-80
2021/06/05 17:26:29;;;;;;;5.47;4.65;;;;;;;19.20;62.35;99171.03;4142755;84;21537;-81
2021/06/05 17:32:31;;;;;;;5.05;4.60;;;;;;;19.12;62.47;99166.84;4170265;84;21041;-80
2021/06/05 17:38:33;;;;;;;5.58;4.97;;;;;;;19.02;62.61;99176.17;4155941;84;21508;-80
2021/06/05 17:44:36;;;;;;;7.78;4.40;;;;;;;18.96;62.88;99184.03;4150981;84;21034;-81
2021/06/05 17:50:38;;;;;;;8.73;5.25;;;;;;;18.89;63.19;99194.66;4156186;84;21099;-80
2021/06/05 17:56:39;;;;;;;5.75;5.05;;;;;;;18.77;63.33;99202.22;4152587;84;21063;-79
2021/06/05 18:02:44;;;;;;;7.35;5.53;;;;;;;18.62;63.25;99199.54;4174238;83;21478;-79
2021/06/05 18:08:50;;;;;;;6.17;5.58;;;;;;;18.44;63.44;99201.82;4160056;83;20990;-79
2021/06/05 18:14:52;;;;;;;6.40;5.10;;;;;;;18.35;63.83;99198.78;4192332;84;21015;-80
2021/06/05 18:20:56;;;;;;;5.75;5.15;;;;;;;18.21;64.26;99202.55;4143599;84;21002;-80
2021/06/05 18:26:59;;;;;;;12.00;6.60;;;;;;;18.03;64.78;99198.50;4154378;84;21006;-79
2021/06/05 18:33:02;;;;;;;10.85;6.65;;;;;;;17.94;65.10;99214.88;4172663;84;20985;-80
2021/06/05 18:39:08;;;;;;;11.05;7.78;;;;;;;17.66;65.92;99233.28;4043578;83;10000344;-80
2021/06/05 18:45:13;;;;;;;;;;;;;;;17.47;66.63;99247.16;4162925;84;22288;-80
2021/06/05 18:51:21;;;;;;;10.68;8.15;;;;;;;17.40;68.00;99254.75;4146491;84;20141;-79
2021/06/05 18:57:24;;;;;;;14.55;10.93;;;;;;;17.15;67.31;99261.93;4140053;84;22032;-79
2021/06/05 19:03:26;;;;;;;11.55;9.43;;;;;;;16.91;68.19;99265.14;4147020;83;21010;-79
2021/06/05 19:09:28;;;;;;;15.08;9.83;;;;;;;16.75;68.78;99266.89;4159229;83;21482;-79
2021/06/05 19:15:37;;;;;;;9.93;8.90;;;;;;;16.55;69.31;99271.42;4150191;84;21108;-80
2021/06/05 19:21:38;;;;;;;10.65;8.55;;;;;;;16.50;70.00;99282.91;4149635;84;21064;-80
2021/06/05 19:27:43;;;;;;;13.13;10.63;;;;;;;16.42;70.29;99291.03;4144093;85;21069;-80
2021/06/05 19:33:52;;;;;;;14.10;11.65;;;;;;;16.32;70.62;99280.25;4154253;85;21575;-79
2021/06/05 19:39:53;;;;;;;20.12;13.93;;;;;;;16.14;70.97;99279.59;4166742;83;21037;-80
2021/06/05 19:45:57;;;;;;;13.72;11.63;;;;;;;15.92;71.52;99300.83;4182437;84;21020;-79
2021/06/05 19:52:00;;;;;;;17.17;13.10;;;;;;;15.64;71.67;99299.01;4089740;85;21026;-79
2021/06/05 19:58:02;;;;;;;20.52;13.78;;;;;;;15.53;72.17;99298.27;4128305;84;21072;-79
2021/06/05 20:04:05;;;;;;;21.93;15.45;;;;;;;15.33;72.55;99309.54;4038159;86;21781;-79
2021/06/05 20:10:09;;;;;;;16.52;13.30;;;;;;;15.19;73.05;99309.58;4094773;85;21073;-79
2021/06/05 20:16:15;;;;;;;15.08;12.50;;;;;;;15.12;73.42;99316.47;4123605;84;21036;-79
2021/06/05 20:22:17;;;;;;;17.13;13.60;;;;;;;14.99;73.61;99316.10;4144454;84;21108;-79
2021/06/05 20:28:18;;;;;;;20.23;15.03;;;;;;;14.75;73.81;99316.90;4125872;84;21103;-77
2021/06/05 20:34:21;;;;;;;20.88;15.08;;;;;;;14.68;74.37;99313.37;4142001;84;21087;-80
2021/06/05 20:40:29;;;;;;;27.07;20.43;;;;;;;14.71;74.59;99319.47;4057912;86;21036;-79
2021/06/05 20:46:37;;;;;;;20.37;12.05;;;;;;;14.50;75.03;99307.08;4141643;84;21088;-80
2021/06/05 20:52:39;;;;;;;19.00;15.95;;;;;;;14.64;75.61;99312.59;4091063;85;21097;-79
2021/06/05 20:58:50;;;;;;;24.25;18.80;;;;;;;14.59;75.18;99315.73;4149212;85;21071;-79
2021/06/05 21:04:52;;;;;;;23.77;18.82;;;;;;;14.37;75.31;99321.03;4136850;85;21084;-79
2021/06/05 21:10:53;;;;;;;26.87;21.48;;;;;;;14.16;75.51;99310.16;4145288;84;21619;-79
2021/06/05 21:16:56;;;;;;;27.93;22.27;;;;;;;14.08;75.80;99317.41;4175893;84;21029;-82
2021/06/05 21:22:59;;;;;;;22.93;18.27;;;;;;;13.95;75.99;99318.97;4152608;84;21077;-79
2021/06/05 21:29:01;;;;;;;25.35;18.82;;;;;;;13.79;76.35;99311.64;4154255;84;21120;-79
2021/06/05 21:35:07;;;;;;;35.65;24.95;;;;;;;13.84;76.75;99316.77;4166426;83;21655;-80
2021/06/05 21:41:09;;;;;;;31.23;21.95;;;;;;;13.94;76.71;99321.50;4159586;84;21044;-80
2021/06/05 21:47:11;;;;;;;32.78;23.30;;;;;;;13.89;76.41;99315.02;4159727;84;21096;-80
2021/06/05 21:53:14;;;;;;;23.77;16.62;;;;;;;13.64;76.50;99318.28;4161032;83;21020;-80
2021/06/05 21:59:18;;;;;;;25.55;18.85;;;;;;;13.43;77.03;99322.30;4186046;83;21108;-80
2021/06/05 22:05:19;;;;;;;33.55;25.05;;;;;;;13.35;77.07;99315.19;4182544;83;21529;-83
2021/06/05 22:11:32;;;;;;;39.30;29.30;;;;;;;13.34;77.07;99316.37;4166283;84;21577;-79
2021/06/05 22:17:33;;;;;;;26.40;19.10;;;;;;;13.35;77.42;99322.06;4154776;85;21118;-80
2021/06/05 22:23:37;;;;;;;27.73;20.77;;;;;;;13.09;77.16;99320.94;4147025;85;21060;-79
2021/06/05 22:29:38;;;;;;;37.95;27.27;;;;;;;12.95;77.49;99320.81;4155626;85;21050;-80
2021/06/05 22:35:41;;;;;;;25.70;19.82;;;;;;;12.83;77.95;99320.53;4145747;85;21069;-79
2021/06/05 22:41:44;;;;;;;31.60;21.48;;;;;;;12.59;77.69;99316.42;4096486;86;21496;-79
2021/06/05 22:47:45;;;;;;;31.95;23.15;;;;;;;12.43;77.84;99316.49;4045450;86;21104;-79
2021/06/05 22:53:53;;;;;;;55.85;37.63;;;;;;;12.32;78.33;99312.25;4099370;86;21557;-79
2021/06/05 22:59:55;;;;;;;29.18;19.73;;;;;;;12.24;78.71;99302.98;4046179;86;21112;-80
2021/06/05 23:05:59;;;;;;;25.55;18.12;;;;;;;12.38;79.03;99308.02;4090333;85;21023;-79
2021/06/05 23:12:02;;;;;;;28.62;21.10;;;;;;;12.45;79.04;99310.81;4133853;84;21072;-79
2021/06/05 23:18:04;;;;;;;33.13;19.80;;;;;;;12.32;78.66;99307.37;4036079;86;21113;-79
2021/06/05 23:24:09;;;;;;;25.20;18.32;;;;;;;12.27;79.10;99306.34;4144651;83;21022;-82
2021/06/05 23:30:14;;;;;;;23.57;18.50;;;;;;;12.15;79.15;99296.41;4130591;85;21075;-77
2021/06/05 23:36:17;;;;;;;;;;;;;;;12.29;79.52;99299.29;4141941;85;21078;-79
2021/06/05 23:42:19;;;;;;;24.32;17.37;;;;;;;12.38;79.49;99300.36;4153457;85;20452;-79
2021/06/05 23:48:21;;;;;;;26.45;17.70;;;;;;;12.38;79.30;99293.50;4137882;85;21041;-78
2021/06/05 23:54:23;;;;;;;31.57;20.20;;;;;;;12.22;78.46;99295.13;4031948;86;21002;-78
